createdAt,value
2019-03-08T00:00:10.126Z,6.50
2019-03-08T00:04:16.686Z,6.40
2019-03-08T00:08:21.670Z,6.40
2019-03-08T00:12:26.666Z,6.40
2019-03-08T00:16:31.630Z,6.40
2019-03-08T00:20:36.864Z,6.50
2019-03-08T00:24:41.846Z,6.60
2019-03-08T00:28:46.809Z,6.50
2019-03-08T00:32:51.806Z,6.70
2019-03-08T00:36:56.800Z,6.90
2019-03-08T00:41:01.794Z,7.00
2019-03-08T00:45:09.917Z,7.00
2019-03-08T00:49:15.012Z,6.90
2019-03-08T00:53:20.013Z,6.70
2019-03-08T00:57:25.013Z,6.70
2019-03-08T01:01:30.197Z,6.70
2019-03-08T01:05:35.182Z,6.60
2019-03-08T01:09:41.793Z,6.70
2019-03-08T01:13:46.742Z,6.70
2019-03-08T01:17:51.797Z,6.60
2019-03-08T01:21:56.782Z,6.50
2019-03-08T01:26:01.808Z,6.40
2019-03-08T01:30:11.935Z,6.30
2019-03-08T01:34:16.913Z,6.30
2019-03-08T01:38:22.180Z,6.40
2019-03-08T01:42:27.163Z,6.40
2019-03-08T01:46:32.146Z,6.50
2019-03-08T01:50:37.141Z,6.60
2019-03-08T01:54:42.225Z,6.70
2019-03-08T01:58:47.292Z,6.70
2019-03-08T02:02:52.348Z,6.60
2019-03-08T02:06:57.447Z,6.60
2019-03-08T02:11:02.442Z,6.70
2019-03-08T02:15:10.752Z,6.70
2019-03-08T02:19:15.819Z,6.70
2019-03-08T02:23:20.816Z,6.80
2019-03-08T02:27:26.106Z,6.80
2019-03-08T02:31:31.134Z,6.70
2019-03-08T02:35:36.177Z,6.70
2019-03-08T02:39:41.174Z,6.60
2019-03-08T02:43:46.167Z,6.70
2019-03-08T02:47:51.226Z,6.70
2019-03-08T02:51:56.208Z,6.60
2019-03-08T02:56:01.396Z,6.60
2019-03-08T03:00:09.718Z,6.50
2019-03-08T03:04:14.987Z,6.50
2019-03-08T03:08:20.014Z,6.60
2019-03-08T03:12:25.015Z,6.70
2019-03-08T03:16:30.570Z,6.90
2019-03-08T03:20:35.818Z,6.90
2019-03-08T03:24:41.073Z,7.00
2019-03-08T03:28:46.333Z,7.10
2019-03-08T03:32:51.315Z,7.20
2019-03-08T03:36:56.582Z,7.20
2019-03-08T03:41:01.717Z,7.20
2019-03-08T03:45:09.239Z,7.20
2019-03-08T03:49:14.514Z,7.20
2019-03-08T03:53:19.609Z,7.30
2019-03-08T03:57:24.664Z,7.30
2019-03-08T04:01:31.598Z,7.30
2019-03-08T04:05:36.851Z,7.10
2019-03-08T04:09:41.845Z,6.90
2019-03-08T04:13:46.889Z,6.80
2019-03-08T04:17:51.893Z,6.50
2019-03-08T04:21:56.912Z,6.50
2019-03-08T04:26:01.865Z,6.40
2019-03-08T04:30:10.300Z,6.40
2019-03-08T04:34:15.490Z,6.50
2019-03-08T04:38:20.756Z,6.50
2019-03-08T04:42:25.745Z,6.40
2019-03-08T04:46:30.710Z,6.40
2019-03-08T04:50:35.697Z,6.40
2019-03-08T04:54:40.689Z,6.30
2019-03-08T04:58:45.665Z,6.30
2019-03-08T05:02:50.998Z,6.40
2019-03-08T05:06:56.093Z,6.40
2019-03-08T05:11:01.061Z,6.40
2019-03-08T05:15:06.622Z,6.40
2019-03-08T05:19:11.610Z,6.40
2019-03-08T05:23:16.786Z,6.30
2019-03-08T05:27:21.777Z,6.30
2019-03-08T05:31:27.183Z,6.30
2019-03-08T05:35:32.180Z,6.30
2019-03-08T05:39:37.328Z,6.50
2019-03-08T05:43:42.498Z,6.50
2019-03-08T05:47:47.518Z,6.40
2019-03-08T05:51:52.703Z,6.40
2019-03-08T05:55:57.676Z,6.40
2019-03-08T06:00:04.022Z,6.60
2019-03-08T06:04:09.734Z,7.60
2019-03-08T06:08:15.015Z,8.70
2019-03-08T06:12:20.289Z,9.00
2019-03-08T06:16:25.533Z,8.00
2019-03-08T06:20:30.794Z,7.40
2019-03-08T06:24:36.050Z,7.20
2019-03-08T06:28:41.321Z,7.00
2019-03-08T06:32:46.647Z,7.20
2019-03-08T06:36:52.104Z,9.50
2019-03-08T06:40:57.410Z,11.70
2019-03-08T06:45:02.767Z,13.40
2019-03-08T06:49:08.110Z,13.40
2019-03-08T06:53:14.486Z,13.00
2019-03-08T06:57:20.525Z,12.80
2019-03-08T07:01:26.017Z,13.40
2019-03-08T07:05:31.285Z,14.00
2019-03-08T07:09:36.604Z,15.00
2019-03-08T07:13:41.966Z,15.40
2019-03-08T07:17:47.222Z,16.20
2019-03-08T07:21:54.510Z,16.20
2019-03-08T07:26:01.403Z,15.70
2019-03-08T07:30:11.066Z,15.50
2019-03-08T07:34:20.882Z,15.70
2019-03-08T07:38:27.795Z,15.80
2019-03-08T07:42:34.726Z,16.90
2019-03-08T07:46:47.770Z,17.80
2019-03-08T07:50:55.652Z,17.80
2019-03-08T07:55:08.319Z,18.20
2019-03-08T07:59:25.422Z,15.10
2019-03-08T08:03:35.027Z,12.70
2019-03-08T08:07:44.864Z,12.90
2019-03-08T08:11:54.516Z,13.20
2019-03-08T08:16:07.278Z,13.00
2019-03-08T08:20:23.022Z,12.90
2019-03-08T08:24:29.975Z,11.80
2019-03-08T08:28:55.967Z,11.20
2019-03-08T08:33:08.942Z,10.50
2019-03-08T08:37:18.554Z,9.80
2019-03-08T08:41:34.282Z,9.50
2019-03-08T08:45:57.226Z,9.40
2019-03-08T08:50:10.225Z,9.40
2019-03-08T08:54:19.778Z,9.70
2019-03-08T08:58:29.698Z,10.00
2019-03-08T09:02:36.627Z,10.70
2019-03-08T09:06:43.544Z,10.50
2019-03-08T09:10:50.537Z,10.40
2019-03-08T09:15:00.289Z,10.00
2019-03-08T09:19:10.198Z,10.00
2019-03-08T09:23:17.114Z,9.90
2019-03-08T09:27:26.962Z,9.60
2019-03-08T09:31:33.885Z,9.60
2019-03-08T09:35:43.660Z,9.40
2019-03-08T09:39:56.810Z,9.40
2019-03-08T09:44:20.983Z,9.30
2019-03-08T09:48:48.603Z,9.20
2019-03-08T09:52:57.262Z,9.10
2019-03-08T09:57:07.475Z,8.80
2019-03-08T10:01:23.227Z,8.80
2019-03-08T10:05:32.546Z,8.90
2019-03-08T10:09:42.175Z,9.20
2019-03-08T10:14:01.113Z,9.60
2019-03-08T10:18:08.014Z,9.90
2019-03-08T10:22:17.697Z,10.10
2019-03-08T10:26:24.618Z,10.50
2019-03-08T10:30:34.495Z,10.70
2019-03-08T10:34:50.458Z,10.50
2019-03-08T10:38:59.964Z,10.40
2019-03-08T10:43:21.950Z,10.40
2019-03-08T10:47:31.330Z,10.80
2019-03-08T10:51:38.284Z,10.70
2019-03-08T10:55:48.108Z,11.00
2019-03-08T11:00:08.416Z,10.80
2019-03-08T11:04:15.394Z,11.00
2019-03-08T11:08:38.998Z,11.20
2019-03-08T11:12:48.445Z,11.00
2019-03-08T11:16:55.504Z,10.80
2019-03-08T11:21:08.134Z,10.40
2019-03-08T11:25:18.032Z,10.30
2019-03-08T11:29:25.334Z,10.10
2019-03-08T11:33:44.610Z,9.90
2019-03-08T11:37:51.752Z,9.80
2019-03-08T11:42:02.955Z,9.80
2019-03-08T11:46:19.046Z,9.60
2019-03-08T11:50:40.829Z,9.30
2019-03-08T11:54:56.526Z,9.20
2019-03-08T11:59:18.433Z,9.10
2019-03-08T12:03:37.316Z,9.00
2019-03-08T12:07:44.228Z,8.90
2019-03-08T12:12:07.598Z,9.00
2019-03-08T12:16:30.838Z,8.80
2019-03-08T12:20:37.759Z,8.30
2019-03-08T12:25:01.401Z,7.50
2019-03-08T12:29:26.179Z,6.90
2019-03-08T12:33:35.589Z,6.80
2019-03-08T12:37:54.799Z,6.70
2019-03-08T12:42:10.202Z,6.50
2019-03-08T12:46:16.858Z,6.30
2019-03-08T12:50:32.829Z,6.20
2019-03-08T12:54:51.301Z,6.00
2019-03-08T12:59:00.443Z,5.90
2019-03-08T13:03:07.116Z,5.90
2019-03-08T13:07:30.293Z,6.00
2019-03-08T13:11:35.289Z,6.30
2019-03-08T13:15:41.278Z,6.20
2019-03-08T13:19:46.563Z,6.20
2019-03-08T13:23:51.551Z,6.30
2019-03-08T13:27:57.134Z,6.80
2019-03-08T13:32:02.131Z,7.30
2019-03-08T13:36:08.017Z,7.60
2019-03-08T13:40:16.899Z,7.60
2019-03-08T13:44:22.201Z,7.50
2019-03-08T13:48:27.474Z,7.60
2019-03-08T13:52:32.728Z,7.50
2019-03-08T13:56:38.294Z,7.40
2019-03-08T14:00:43.605Z,7.50
2019-03-08T14:04:48.887Z,7.80
2019-03-08T14:08:54.138Z,8.00
2019-03-08T14:12:59.369Z,8.30
2019-03-08T14:17:04.793Z,8.50
2019-03-08T14:21:10.065Z,8.50
2019-03-08T14:25:15.605Z,8.60
2019-03-08T14:29:22.192Z,8.70
2019-03-08T14:33:27.922Z,8.70
2019-03-08T14:37:33.173Z,8.70
2019-03-08T14:41:40.083Z,8.80
2019-03-08T14:45:47.290Z,8.70
2019-03-08T14:49:55.382Z,8.60
2019-03-08T14:53:59.534Z,8.50
2019-03-08T14:58:04.781Z,8.50
2019-03-08T15:02:13.663Z,8.60
2019-03-08T15:06:16.948Z,8.50
2019-03-08T15:10:22.272Z,8.50
2019-03-08T15:14:30.168Z,8.50
2019-03-08T15:18:34.424Z,8.50
2019-03-08T15:22:39.668Z,8.70
2019-03-08T15:26:44.938Z,8.70
2019-03-08T15:30:50.265Z,8.50
2019-03-08T15:34:55.619Z,8.30
2019-03-08T15:39:00.894Z,8.30
2019-03-08T15:43:09.751Z,8.50
2019-03-08T15:47:23.245Z,8.80
2019-03-08T15:51:25.349Z,9.00
2019-03-08T15:55:29.461Z,9.00
2019-03-08T15:59:35.037Z,8.90
2019-03-08T16:03:40.345Z,8.50
2019-03-08T16:07:45.786Z,8.20
2019-03-08T16:11:51.042Z,7.80
2019-03-08T16:15:56.412Z,7.50
2019-03-08T16:20:02.953Z,7.40
2019-03-08T16:24:09.146Z,7.50
2019-03-08T16:28:14.419Z,7.60
2019-03-08T16:32:33.134Z,7.60
2019-03-08T16:36:39.898Z,7.60
2019-03-08T16:40:55.851Z,7.60
2019-03-08T16:45:19.034Z,7.40
2019-03-08T16:49:25.763Z,7.20
2019-03-08T16:53:41.342Z,7.00
2019-03-08T16:58:06.129Z,6.80
2019-03-08T17:02:18.739Z,6.60
2019-03-08T17:06:31.746Z,6.50
2019-03-08T17:10:54.533Z,6.40
2019-03-08T17:15:18.314Z,6.30
2019-03-08T17:19:28.447Z,6.20
2019-03-08T17:23:47.433Z,6.00
2019-03-08T17:27:56.981Z,5.90
2019-03-08T17:32:06.454Z,5.80
2019-03-08T17:36:18.798Z,5.80
2019-03-08T17:40:31.771Z,5.70
2019-03-08T17:44:58.194Z,5.50
2019-03-08T17:49:07.442Z,5.40
2019-03-08T17:53:23.240Z,5.20
2019-03-08T17:57:32.918Z,5.00
2019-03-08T18:01:51.412Z,4.90
2019-03-08T18:05:58.518Z,4.80
2019-03-08T18:10:08.842Z,4.80
2019-03-08T18:14:24.430Z,4.70
2019-03-08T18:18:31.079Z,4.70
2019-03-08T18:22:43.787Z,4.60
2019-03-08T18:26:56.769Z,4.60
2019-03-08T18:31:18.694Z,4.60
2019-03-08T18:35:34.493Z,4.50
2019-03-08T18:39:46.913Z,4.50
2019-03-08T18:43:59.301Z,4.40
2019-03-08T18:48:06.614Z,4.40
2019-03-08T18:52:13.247Z,4.30
2019-03-08T18:56:22.521Z,4.30
2019-03-08T19:00:29.209Z,4.30
2019-03-08T19:04:35.903Z,4.30
2019-03-08T19:08:51.626Z,4.20
2019-03-08T19:13:00.835Z,4.20
2019-03-08T19:17:13.387Z,4.10
2019-03-08T19:21:36.246Z,4.20
2019-03-08T19:25:51.917Z,4.20
2019-03-08T19:29:58.622Z,4.10
2019-03-08T19:34:17.087Z,4.10
2019-03-08T19:38:38.865Z,4.00
2019-03-08T19:42:48.186Z,4.00
2019-03-08T19:47:11.042Z,3.90
2019-03-08T19:51:29.406Z,4.00
2019-03-08T19:55:41.697Z,4.00
2019-03-08T19:59:50.765Z,4.00
2019-03-08T20:04:13.666Z,3.90
2019-03-08T20:08:26.254Z,3.90
2019-03-08T20:12:38.648Z,3.80
2019-03-08T20:16:45.282Z,3.80
2019-03-08T20:20:54.619Z,3.70
2019-03-08T20:25:07.362Z,3.70
2019-03-08T20:29:23.791Z,3.70
2019-03-08T20:33:30.694Z,3.70
2019-03-08T20:37:37.682Z,3.70
2019-03-08T20:41:46.853Z,3.60
2019-03-08T20:45:53.824Z,3.60
2019-03-08T20:50:00.755Z,3.60
2019-03-08T20:54:06.226Z,3.70
2019-03-08T20:58:12.470Z,3.70
2019-03-08T21:02:17.469Z,3.80
2019-03-08T21:06:22.738Z,3.80
2019-03-08T21:10:27.801Z,3.90
2019-03-08T21:14:32.795Z,3.90
2019-03-08T21:18:37.794Z,3.90
2019-03-08T21:22:42.809Z,3.80
2019-03-08T21:26:49.221Z,3.80
2019-03-08T21:30:54.239Z,3.90
2019-03-08T21:34:59.234Z,4.10
2019-03-08T21:39:06.485Z,4.30
2019-03-08T21:43:13.147Z,4.40
2019-03-08T21:47:18.550Z,4.60
2019-03-08T21:51:23.529Z,4.70
2019-03-08T21:55:28.543Z,4.90
2019-03-08T21:59:35.310Z,5.00
2019-03-08T22:03:40.779Z,5.10
2019-03-08T22:07:45.874Z,5.20
2019-03-08T22:11:51.881Z,5.30
2019-03-08T22:15:56.842Z,5.30
2019-03-08T22:20:03.733Z,5.40
2019-03-08T22:24:13.452Z,5.50
2019-03-08T22:28:16.259Z,5.50
2019-03-08T22:32:21.233Z,5.50
2019-03-08T22:36:26.225Z,5.50
2019-03-08T22:40:31.218Z,5.50
2019-03-08T22:44:36.214Z,5.50
2019-03-08T22:48:42.181Z,5.50
2019-03-08T22:52:47.170Z,5.50
2019-03-08T22:56:52.190Z,5.50
2019-03-08T23:01:00.862Z,5.60
2019-03-08T23:05:07.538Z,5.60
2019-03-08T23:09:13.946Z,5.70
2019-03-08T23:13:19.811Z,5.70
2019-03-08T23:17:24.794Z,5.80
2019-03-08T23:21:29.889Z,5.80
2019-03-08T23:25:34.877Z,5.90
2019-03-08T23:29:47.707Z,5.90
2019-03-08T23:33:53.001Z,5.90
2019-03-08T23:37:58.018Z,5.80
2019-03-08T23:42:03.042Z,5.80
2019-03-08T23:46:08.033Z,5.80
2019-03-08T23:50:13.084Z,5.80
2019-03-08T23:54:18.282Z,5.90
2019-03-08T23:58:23.325Z,5.80
